Pomona, NJ

8:45 PM EDT on October 24, 2014 (GMT -0400)
Atlantic City International | Change Station
CLOSE
Current Station
Airport
Location: Atlantic City,
Elevation: 66 ft
Nearby Weather Stations

Elev 66 ft 39.45 °N, 74.57 °W | Updated 51 minutes ago

Partly Cloudy
Partly Cloudy
58 °F
Feels Like 58 °F
N
8
Wind Variable Wind from West

Today
High -- | Low -- °F
--% Chance of Precip.
Yesterday
High -- | Low -- °F
Precip. -- in
7:17 AM 6:06 PM
New Moon, 1% visible
Pressure 29.84 in
Visibility 10.0 miles
Clouds Clear
Dew Point 47 °F
Humidity 67%
Rainfall 0.00 in
Snow Depth Not available.
UV 0 out of 12
Pollen 1.50 out of 12
Ozone Good
PM2.5 Good
Flu Activity Sporadic
METAR KACY 242354Z 26007KT 10SM CLR 14/08 A2984 RMK AO2 SLP105 T01440083 10200 20144 53016

More Conditions Fewer Conditions

Pressure 29.84 in
Visibility 10.0 miles
Clouds Clear
Dew Point 47 °F
Humidity 67%
Rainfall 0.00 in
Snow Depth Not available.
UV 0 out of 12
Pollen 1.50 out of 12
Ozone Good
PM2.5 Good
Flu Activity Sporadic
METAR KACY 242354Z 26007KT 10SM CLR 14/08 A2984 RMK AO2 SLP105 T01440083 10200 20144 53016

More Conditions Fewer Conditions

10-Day Weather Forecast

Almanac

Astronomy

Oct. 24, 2014 Rise Set
Actual Time 7:17 AM EDT 6:06 PM EDT
Civil Twilight 6:50 AM EDT 6:34 PM EDT
Nautical Twilight 6:18 AM EDT 7:05 PM EDT
Astronomical Twilight 5:47 AM EDT 7:36 PM EDT
Moon 7:54 AM EDT (10/24) 6:45 PM EDT (10/24)
Length of Visible Light 11h 43m
Length of Day
10h 49m
Tomorrow will be 2m 23s shorter.
New Moon, 1% of the Moon is Illuminated
Today
New Moon
Oct 30
First Quarter
Nov 6
Full
Nov 14
Last Quarter
Nov 22
New

Today's Extremes

State Highs State Lows

Community

WunderPhotos

Upload Photos

1,764,735 photos uploaded!

WunderBlogs® & News

Nearby

Air Quality

  Air Quality AQ Index Pollutant
Yesterday Good
PM2.5
Yesterday Good
OZONE
Current Good
OZONE
Current Good
PM2.5
Friday Good
PM2.5
Saturday Moderate
PM2.5
Sunday Good
PM2.5
Monday Good
PM2.5

Snow Depth

Station Depth Elevation
No new snow has been reported.

Earthquake Activity

City Distance Mag. Time & Date
No recent earthquake activity has been reported nearby.
Minimum magnitude displayed is 2.5.

Coastal Water Temperatures

Place Temperature
No Stations Reporting

Nearby Weather Stations